New Orleans Nas Jrb/Alvin Callender Field/ Airport
KNBG : now visible

Airfield :











YOU CAN JOIN US ON...

 
LOGIN :

Register | Disclaimer

   EN    FR    IT 

 









Legend :    VFR   Marginal VFR   IFR   Intensive IFR   Very Intensive IFR
Visi :
Ceiling :
>= 8 km
>= 3000ft
5 to 8 km
1000 to 3000 ft
1500m to 5 km
500 to 1000 ft
800 to 1500m
200 to 500 ft
< 800m
< 200 ft
Symbols :   Thunderstorms  Fog  Heavy snow  Heavy precipitations  Wind > 20 kt






- Airport Elevation : 2 ft


KNBG - New Orleans Nas Jrb/Alvin Callender Field/

CURRENT METAR :
  • 171855Z 11010KT 7SM -RA FEW015 BKN070 OVC100 24/23 A3004 RMK AO2 SLP172 T2 SET P0001 T02390233 $

EXPIRED METARs :
  • 171755Z 14010KT 4SM -RA BR SCT013 BKN3 OVC100 24/24 A3005 RMK AO2 RAB10 SLP174 T2 SET P0002 60051 T02440244 10250 20211 56008 $
  • 171732Z 14010KT 5SM -RA BR SCT011 BKN019 OVC080 24/24 A3005 RMK AO2 RAB10 T2 SET P0001 T02440239 $
  • 171655Z 13007KT 6SM BR FEW015 SCT030 BKN100 OVC250 25/24 A3005 RMK AO2 RAE53 TSE04 SLP175 T2 SET P0000 T02500244 $

TAF COR TAF KNBG
Valid from the 17 at 15:00 until the 18 at 15:00 UTC


1715/1815 13010G20KT 9999 FEW007 SCT015CB BKN030 OVC120 QNH2998INS
TEMPO 1715/1721 VRB25G35KT 1200 +TSRA BR SCT005 BKN010CB OVC030
TEMPO 1721/1801 VRB25G35KT 1600 +TSRA BR BKN015CB BKN030 OVC050
BECMG 1801/1803 12012KT 9999 VCTS SCT020CB BKN050 OVC120 QNH2995INS
BECMG 1807/1809 16010G18KT 8000 -RA BR VCTS SCT005 BKN015CB OVC110 QNH3000INS
TEMPO 1809/1815 VRB25G35KT 3200 TSRA BR BKN008 OVC015CB QNH3003INS T26/1720Z T21/1812Z COR 1544 FN20039
KZHU FIR / North America



MET'MAP, your aeronautical weather chart ! - Copyright ORBIFLY December 2007 - Disclaimer

ORBIFLY MET'MAP TEAM :

Programming & Development : Alexandra Zaïnal
Concept & original design : Baudouin d'Aumeries
Assistance for programming : Marc-Olivier Méhu
Technical & hardware support : Manuel Goepfert

Contact : metmap@orbifly.com




SOURCES & CREDITS :

   NOAA       Earth
Advisory